Time;durP1;ratioP1;P1;durP2;ratioP2;P2;SDS_P1;SDS_P2;PMS_P1;PMS_P2;Temp;Humidity;BMP_temperature;BMP_pressure;BME280_temperature;BME280_humidity;BME280_pressure;Samples;Min_cycle;Max_cycle;Signal;HPM_P1;HPM_P2
2022/03/17 00:00:38;;;;;;;8.75;6.10;;;12.30;99.90;;;;;;1892368;75;21107;-86
2022/03/17 00:06:13;;;;;;;10.38;5.35;;;12.10;99.90;;;;;;1938515;72;22683;-85
2022/03/17 00:09:23;;;;;;;11.65;6.03;;;12.10;99.90;;;;;;1898695;75;21056;-87
2022/03/17 00:12:15;;;;;;;11.57;6.20;;;12.10;99.90;;;;;;1902369;75;21052;-86
2022/03/17 00:17:46;;;;;;;12.82;5.90;;;12.10;99.90;;;;;;1911081;72;22145;-85
2022/03/17 00:20:56;;;;;;;10.55;5.37;;;12.10;99.90;;;;;;1873799;75;21058;-87
2022/03/17 00:23:50;;;;;;;13.48;5.42;;;12.10;99.90;;;;;;1887952;75;21172;-87
2022/03/17 00:26:42;;;;;;;9.43;5.80;;;12.10;99.90;;;;;;1890344;75;21054;-86
2022/03/17 00:32:14;;;;;;;10.23;5.22;;;12.20;99.90;;;;;;1940112;72;22193;-85
2022/03/17 00:35:38;;;;;;;9.43;5.20;;;12.20;99.90;;;;;;1907423;74;21055;-87
2022/03/17 00:38:30;;;;;;;10.88;5.35;;;12.20;99.90;;;;;;1882053;75;21577;-86
2022/03/17 00:41:23;;;;;;;9.48;5.80;;;12.20;99.90;;;;;;1890594;75;21110;-86
2022/03/17 00:46:54;;;;;;;10.10;5.47;;;12.30;99.90;;;;;;1942280;72;22240;-85
2022/03/17 00:50:05;;;;;;;10.18;6.30;;;12.20;99.90;;;;;;1885023;75;21169;-86
2022/03/17 00:52:59;;;;;;;10.72;6.22;;;12.30;99.90;;;;;;1898164;75;21106;-86
2022/03/17 00:55:50;;;;;;;10.30;5.80;;;12.20;99.90;;;;;;1874504;75;21059;-86
2022/03/17 01:01:21;;;;;;;10.55;5.35;;;12.10;99.90;;;;;;1935754;72;22626;-85
2022/03/17 01:04:31;;;;;;;11.85;5.87;;;12.10;99.90;;;;;;1886728;75;21059;-86
2022/03/17 01:07:24;;;;;;;9.55;5.53;;;12.10;99.90;;;;;;1875543;75;21098;-86
2022/03/17 01:12:56;;;;;;;10.35;5.83;;;12.10;99.90;;;;;;1945897;72;22805;-86
2022/03/17 01:16:06;;;;;;;10.43;6.12;;;12.10;99.90;;;;;;1896173;75;21152;-86
2022/03/17 01:18:58;;;;;;;13.75;6.65;;;12.10;99.90;;;;;;1907325;75;21087;-86
2022/03/17 01:21:51;;;;;;;11.63;6.92;;;12.10;99.90;;;;;;1887761;75;21128;-86
2022/03/17 01:27:24;;;;;;;13.93;7.47;;;12.00;99.90;;;;;;1948176;72;22715;-85
2022/03/17 01:30:35;;;;;;;10.72;6.95;;;12.00;99.90;;;;;;1885634;75;21073;-87
2022/03/17 01:33:27;;;;;;;10.40;6.40;;;12.00;99.90;;;;;;1909918;75;21043;-86
2022/03/17 01:36:18;;;;;;;9.68;6.90;;;12.00;99.90;;;;;;1889061;75;21117;-86
2022/03/17 01:41:52;;;;;;;10.28;6.72;;;11.90;99.90;;;;;;1937367;72;22120;-85
2022/03/17 01:45:02;;;;;;;12.33;7.12;;;11.90;99.90;;;;;;1895160;75;21141;-86
2022/03/17 01:47:53;;;;;;;10.03;6.70;;;11.90;99.90;;;;;;1892763;75;21154;-86
2022/03/17 01:53:25;;;;;;;11.00;6.87;;;11.90;99.90;;;;;;1935816;72;22322;-85
2022/03/17 01:56:35;;;;;;;14.50;6.60;;;11.80;99.90;;;;;;1888490;75;21371;-86
2022/03/17 02:02:08;;;;;;;11.85;6.33;;;11.70;99.90;;;;;;1935874;72;22327;-85
2022/03/17 02:07:59;;;;;;;9.60;6.22;;;11.70;99.90;;;;;;1948009;72;22145;-85
2022/03/17 02:17:14;;;;;;;11.05;6.80;;;11.70;99.90;;;;;;1967921;72;22171;-87
2022/03/17 02:20:28;;;;;;;13.05;7.90;;;11.70;99.90;;;;;;1917760;75;21159;-86
2022/03/17 02:26:00;;;;;;;12.80;7.33;;;11.70;99.90;;;;;;1953511;72;22567;-85
2022/03/17 02:29:11;;;;;;;11.68;7.42;;;11.70;99.90;;;;;;1944420;73;21100;-85
2022/03/17 02:32:03;;;;;;;11.18;7.78;;;11.80;99.90;;;;;;1944804;73;21124;-85
2022/03/17 02:34:55;;;;;;;12.53;7.12;;;11.70;99.90;;;;;;1897165;73;21141;-85
2022/03/17 02:37:47;;;;;;;13.13;8.00;;;11.80;99.90;;;;;;1936618;73;21138;-85
2022/03/17 02:40:39;;;;;;;13.15;8.80;;;11.70;99.90;;;;;;1913105;73;21041;-86
2022/03/17 02:46:08;;;;;;;14.20;8.35;;;11.70;99.90;;;;;;1954454;72;22134;-85
2022/03/17 02:51:57;;;;;;;13.95;8.40;;;11.70;99.90;;;;;;1976641;72;22741;-85
2022/03/17 02:55:11;;;;;;;13.13;8.73;;;11.70;99.90;;;;;;1916479;74;21112;-86
2022/03/17 02:58:06;;;;;;;13.50;8.55;;;11.70;99.90;;;;;;1910443;74;21048;-86
2022/03/17 03:03:42;;;;;;;16.65;8.95;;;11.70;99.90;;;;;;1954853;72;22222;-85
2022/03/17 03:06:52;;;;;;;15.75;9.88;;;11.60;99.90;;;;;;1877588;76;21094;-86
2022/03/17 03:09:45;;;;;;;15.95;9.20;;;11.60;99.90;;;;;;1905341;75;21128;-85
2022/03/17 03:12:37;;;;;;;15.28;9.00;;;11.60;99.90;;;;;;1890093;75;21179;-86
2022/03/17 03:15:29;;;;;;;14.38;9.35;;;11.60;99.90;;;;;;1890007;75;21117;-85
2022/03/17 03:21:02;;;;;;;14.50;9.28;;;11.70;99.90;;;;;;1941260;72;22177;-85
2022/03/17 03:24:12;;;;;;;15.78;9.15;;;11.70;99.90;;;;;;1875387;75;21090;-85
2022/03/17 03:27:06;;;;;;;13.85;8.15;;;11.60;99.90;;;;;;1894716;75;21134;-85
2022/03/17 03:29:58;;;;;;;14.20;8.78;;;11.50;99.90;;;;;;1864998;76;21155;-85
2022/03/17 03:32:52;;;;;;;14.83;8.65;;;11.60;99.90;;;;;;1905427;75;21129;-84
2022/03/17 03:41:33;;;;;;;12.68;7.95;;;11.50;99.90;;;;;;1942642;72;22230;-84
2022/03/17 03:44:43;;;;;;;11.90;7.40;;;11.50;99.90;;;;;;1896349;75;21039;-86
2022/03/17 03:47:35;;;;;;;12.03;7.28;;;11.50;99.90;;;;;;1905615;75;21055;-86
2022/03/17 03:50:28;;;;;;;11.25;7.67;;;11.50;99.90;;;;;;1887887;75;21047;-87
2022/03/17 03:53:19;;;;;;;10.88;7.37;;;11.50;99.90;;;;;;1896766;75;21096;-86
2022/03/17 03:56:10;;;;;;;10.70;7.05;;;11.40;99.90;;;;;;1894937;75;21103;-86
2022/03/17 04:01:41;;;;;;;9.58;6.58;;;11.40;99.90;;;;;;1952071;72;22167;-87
2022/03/17 04:04:51;;;;;;;10.50;6.55;;;11.50;99.90;;;;;;1884460;75;21093;-85
2022/03/17 04:07:43;;;;;;;12.95;7.03;;;11.50;99.90;;;;;;1900221;75;21107;-85
2022/03/17 04:10:35;;;;;;;13.55;7.12;;;11.40;99.90;;;;;;1902882;75;21107;-85
2022/03/17 04:13:27;;;;;;;10.70;7.30;;;11.40;99.90;;;;;;1888751;75;21059;-85
2022/03/17 04:16:18;;;;;;;11.48;7.47;;;11.50;99.90;;;;;;1885187;75;21531;-85
2022/03/17 04:19:10;;;;;;;11.60;6.95;;;11.50;99.90;;;;;;1889694;75;21088;-85
2022/03/17 04:22:02;;;;;;;12.98;7.37;;;11.50;99.90;;;;;;1894587;75;21044;-85
2022/03/17 04:24:54;;;;;;;11.08;6.70;;;11.40;99.90;;;;;;1873023;76;21071;-85
2022/03/17 04:27:45;;;;;;;12.55;6.75;;;11.40;99.90;;;;;;1905080;75;21522;-85
2022/03/17 04:30:37;;;;;;;12.15;7.12;;;11.40;99.90;;;;;;1896556;75;21064;-87
2022/03/17 04:33:29;;;;;;;9.38;6.67;;;11.40;99.90;;;;;;1894468;75;21125;-87
2022/03/17 04:36:21;;;;;;;12.70;7.05;;;11.30;99.90;;;;;;1873228;76;21063;-86
2022/03/17 04:41:51;;;;;;;12.60;7.12;;;11.20;99.90;;;;;;1947799;72;22105;-85
2022/03/17 04:45:04;;;;;;;11.40;7.22;;;11.20;99.90;;;;;;1910190;74;21123;-87
2022/03/17 04:47:56;;;;;;;11.78;7.10;;;11.20;99.90;;;;;;1905299;75;21172;-87
2022/03/17 04:50:48;;;;;;;11.83;7.47;;;11.30;99.90;;;;;;1905520;75;21052;-87
2022/03/17 04:56:20;;;;;;;11.50;6.97;;;11.20;99.90;;;;;;1940088;72;22193;-87
2022/03/17 04:59:30;;;;;;;10.63;7.15;;;11.20;99.90;;;;;;1899547;75;21039;-87
2022/03/17 05:02:21;;;;;;;12.98;6.58;;;11.20;99.90;;;;;;1884556;75;21132;-86
2022/03/17 05:07:57;;;;;;;11.85;6.75;;;11.20;99.90;;;;;;1925823;72;22139;-85
2022/03/17 05:11:07;;;;;;;10.50;7.03;;;11.20;99.90;;;;;;1873482;75;21117;-87
2022/03/17 05:16:38;;;;;;;10.05;7.08;;;11.20;99.90;;;;;;1944529;72;22141;-85
2022/03/17 05:22:29;;;;;;;9.73;7.33;;;11.10;99.90;;;;;;1938005;72;22204;-85
2022/03/17 05:25:39;;;;;;;11.38;7.42;;;11.10;99.90;;;;;;1897897;75;21098;-86
2022/03/17 05:31:09;;;;;;;11.18;7.35;;;11.10;99.90;;;;;;1950624;72;22706;-87
2022/03/17 05:37:03;;;;;;;11.85;7.03;;;11.10;99.90;;;;;;1937383;72;22249;-88
2022/03/17 05:40:15;;;;;;;13.70;7.70;;;11.00;99.90;;;;;;1895177;75;21117;-88
2022/03/17 05:43:09;;;;;;;12.70;6.90;;;11.00;99.90;;;;;;1895059;75;21106;-88
2022/03/17 05:46:01;;;;;;;10.00;7.08;;;11.00;99.90;;;;;;1891634;75;21092;-89
2022/03/17 05:48:53;;;;;;;12.78;7.05;;;10.90;99.90;;;;;;1878163;75;21162;-87
2022/03/17 05:51:44;;;;;;;10.32;7.90;;;10.90;99.90;;;;;;1894512;75;21139;-87
2022/03/17 05:57:17;;;;;;;9.83;6.72;;;10.80;99.90;;;;;;1937781;72;22164;-88
2022/03/17 06:00:28;;;;;;;11.80;7.67;;;10.70;99.90;;;;;;1900349;75;21205;-87
2022/03/17 06:05:59;;;;;;;18.82;8.40;;;10.70;99.90;;;;;;1933156;72;22174;-86
2022/03/17 06:11:57;;;;;;;11.55;7.33;;;10.50;99.90;;;;;;1915427;74;22280;-89
2022/03/17 06:18:00;;;;;;;11.08;7.00;;;10.30;99.90;;;;;;1965719;72;22193;-88
2022/03/17 06:21:10;;;;;;;15.53;6.87;;;10.30;99.90;;;;;;1918587;74;21113;-89
2022/03/17 06:26:46;;;;;;;13.85;7.12;;;10.30;99.90;;;;;;1956623;72;22594;-87
2022/03/17 06:32:40;;;;;;;13.58;7.42;;;10.40;99.90;;;;;;1939836;72;22126;-86
2022/03/17 06:38:33;;;;;;;12.90;6.95;;;10.50;99.90;;;;;;1956330;72;22218;-87
2022/03/17 06:41:43;;;;;;;15.35;6.72;;;10.50;99.90;;;;;;1880216;75;21067;-87
2022/03/17 06:47:14;;;;;;;13.53;6.08;;;10.80;99.90;;;;;;1950463;72;22286;-87
2022/03/17 06:50:25;;;;;;;12.85;6.62;;;10.80;99.90;;;;;;1899442;75;21168;-85
2022/03/17 06:53:16;;;;;;;16.12;6.55;;;10.90;99.90;;;;;;1883614;75;21640;-85
2022/03/17 06:56:08;;;;;;;11.33;7.72;;;10.90;99.90;;;;;;1874791;75;21104;-86
2022/03/17 07:01:38;;;;;;;15.85;7.70;;;10.90;99.90;;;;;;1976433;72;22143;-87
2022/03/17 07:05:08;;;;;;;13.95;7.33;;;11.00;99.90;;;;;;1919676;73;21027;-87
2022/03/17 07:07:59;;;;;;;11.90;8.03;;;11.10;99.90;;;;;;1905270;75;21339;-86
2022/03/17 07:10:53;;;;;;;13.00;6.58;;;11.10;99.90;;;;;;1904111;75;21126;-86
2022/03/17 07:16:24;;;;;;;13.50;7.20;;;11.20;99.90;;;;;;1941956;72;22226;-87
2022/03/17 07:22:13;;;;;;;12.35;8.08;;;11.40;99.90;;;;;;1948788;72;22146;-87
2022/03/17 07:28:05;;;;;;;12.73;9.10;;;11.50;99.90;;;;;;1958424;72;22252;-87
2022/03/17 07:36:36;;;;;;;15.20;9.55;;;11.60;99.90;;;;;;1941331;72;22299;-87
2022/03/17 07:39:46;;;;;;;19.12;9.15;;;11.70;99.90;;;;;;1877940;75;21667;-87
2022/03/17 07:42:39;;;;;;;17.65;9.55;;;11.80;99.90;;;;;;1899417;75;21137;-87
2022/03/17 07:45:42;;;;;;;20.08;9.88;;;11.90;99.90;;;;;;1863488;75;21557;-86
2022/03/17 07:51:24;;;;;;;20.05;10.93;;;12.00;99.90;;;;;;1931059;72;22563;-87
2022/03/17 07:54:35;;;;;;;13.65;8.90;;;12.00;99.90;;;;;;1895133;75;21597;-77
2022/03/17 07:57:28;;;;;;;17.35;8.93;;;12.10;99.90;;;;;;1847811;77;21074;-90
2022/03/17 08:03:01;;;;;;;14.38;8.93;;;12.10;99.90;;;;;;1956479;72;22335;-91
2022/03/17 08:06:13;;;;;;;15.03;8.93;;;12.10;99.90;;;;;;1916375;75;21129;-90
2022/03/17 08:09:06;;;;;;;19.77;8.93;;;12.20;99.90;;;;;;1917501;75;21145;-90
2022/03/17 08:11:59;;;;;;;13.43;8.48;;;12.40;99.90;;;;;;1917831;75;21146;-90
2022/03/17 08:14:51;;;;;;;13.35;8.38;;;12.40;99.90;;;;;;1905273;75;21054;-90
2022/03/17 08:17:43;;;;;;;12.68;7.90;;;12.50;99.90;;;;;;1896219;75;21046;-89
2022/03/17 08:20:36;;;;;;;13.20;7.42;;;12.70;99.90;;;;;;1916909;75;21098;-90
2022/03/17 08:23:27;;;;;;;15.30;7.80;;;12.80;99.90;;;;;;1916177;75;21507;-90
2022/03/17 08:26:22;;;;;;;11.65;7.70;;;12.90;99.90;;;;;;1900266;75;21123;-90
2022/03/17 08:29:14;;;;;;;16.45;8.10;;;13.00;99.90;;;;;;1897372;75;21054;-91
2022/03/17 08:32:08;;;;;;;15.43;8.85;;;13.10;99.90;;;;;;1913052;75;21062;-90
2022/03/17 08:35:01;;;;;;;14.30;8.58;;;13.10;99.90;;;;;;1917146;75;21106;-89
2022/03/17 08:37:53;;;;;;;13.55;8.63;;;13.30;99.90;;;;;;1917568;75;21074;-90
2022/03/17 08:43:24;;;;;;;14.65;8.70;;;13.50;99.90;;;;;;1952460;72;22217;-91
2022/03/17 08:52:27;;;;;;;13.70;9.18;;;13.70;99.90;;;;;;1957979;72;22083;-89
2022/03/17 08:55:37;;;;;;;19.20;9.13;;;13.70;99.90;;;;;;1926621;73;21116;-89
2022/03/17 08:58:29;;;;;;;17.85;9.13;;;13.80;99.90;;;;;;1927281;73;21113;-90
2022/03/17 09:01:20;;;;;;;17.35;10.23;;;13.80;99.90;;;;;;1941424;73;21086;-89
2022/03/17 09:04:14;;;;;;;17.80;9.50;;;13.90;99.90;;;;;;1880554;76;21065;-90
2022/03/17 09:07:08;;;;;;;17.02;9.35;;;13.90;99.90;;;;;;1937368;73;21055;-89
2022/03/17 09:13:11;;;;;;;15.98;9.00;;;14.00;99.90;;;;;;1993116;71;22166;-90
2022/03/17 09:16:21;;;;;;;13.18;8.38;;;14.00;99.90;;;;;;2009864;70;21171;-91
2022/03/17 09:21:53;;;;;;;14.00;8.75;;;14.10;99.90;;;;;;1953003;72;22146;-93
2022/03/17 09:25:04;;;;;;;15.03;8.53;;;14.10;99.90;;;;;;1918674;73;21095;-91
2022/03/17 09:27:57;;;;;;;17.57;9.25;;;14.10;99.90;;;;;;1917867;75;21136;-89
2022/03/17 09:30:49;;;;;;;14.45;9.65;;;14.30;99.90;;;;;;1917173;75;21129;-90
2022/03/17 09:33:42;;;;;;;15.75;9.10;;;14.40;99.90;;;;;;1917590;75;21139;-90
2022/03/17 09:36:33;;;;;;;16.50;8.20;;;14.50;99.90;;;;;;1917952;75;21124;-89
2022/03/17 09:39:45;;;;;;;12.20;8.43;;;14.40;99.90;;;;;;1935994;73;21043;-91
2022/03/17 09:42:32;;;;;;;;;;;14.30;99.90;;;;;;1937800;73;21114;-90
2022/03/17 09:45:24;;;;;;;13.75;8.28;;;14.30;99.90;;;;;;1931017;73;20119;-90
2022/03/17 09:48:17;;;;;;;19.10;9.00;;;14.30;99.90;;;;;;1917672;75;21137;-89
2022/03/17 09:51:09;;;;;;;15.55;7.83;;;14.30;99.90;;;;;;1917773;75;21168;-90
2022/03/17 09:56:41;;;;;;;17.25;8.65;;;14.50;99.90;;;;;;1941698;72;22174;-89
2022/03/17 09:59:56;;;;;;;16.37;8.80;;;14.70;99.90;;;;;;1920917;74;21103;-91
2022/03/17 10:02:47;;;;;;;17.95;9.58;;;14.90;99.90;;;;;;1928738;74;21672;-91
2022/03/17 10:05:39;;;;;;;15.63;8.70;;;15.00;99.90;;;;;;1924626;74;21047;-90
2022/03/17 10:11:21;;;;;;;15.75;9.60;;;15.10;99.90;;;;;;1930820;72;22127;-92
2022/03/17 10:14:39;;;;;;;14.15;9.75;;;15.10;99.90;;;;;;1894707;75;21057;-90
2022/03/17 10:17:33;;;;;;;16.87;9.05;;;15.10;99.90;;;;;;1891985;75;21098;-90
2022/03/17 10:20:27;;;;;;;15.88;9.45;;;15.00;99.90;;;;;;1891967;75;21599;-91
2022/03/17 10:23:24;;;;;;;15.70;9.25;;;14.90;99.90;;;;;;1898054;75;21130;-91
2022/03/17 10:26:35;;;;;;;16.48;9.08;;;14.90;99.90;;;;;;1884546;75;21122;-90
2022/03/17 10:32:09;;;;;;;13.85;8.45;;;14.90;99.90;;;;;;1952639;72;22251;-89
2022/03/17 10:38:13;;;;;;;15.05;8.43;;;14.80;99.90;;;;;;1953523;72;22115;-91
2022/03/17 10:41:23;;;;;;;15.35;8.70;;;14.90;99.90;;;;;;1907127;75;21608;-91
2022/03/17 10:44:16;;;;;;;13.62;7.87;;;14.90;99.90;;;;;;1884807;76;21116;-90
2022/03/17 10:47:09;;;;;;;16.50;8.40;;;14.90;99.90;;;;;;1898511;75;21206;-91
2022/03/17 10:53:05;;;;;;;14.05;7.80;;;15.20;99.90;;;;;;1953477;72;22127;-90
2022/03/17 11:09:19;;;;;;;10.35;6.58;;;15.30;99.90;;;;;;1919046;74;22139;-89
2022/03/17 11:12:29;;;;;;;13.15;6.72;;;15.20;99.90;;;;;;1934121;73;21081;-91
2022/03/17 11:18:14;;;;;;;15.10;6.95;;;15.30;99.90;;;;;;1958412;72;22589;-75
2022/03/17 11:21:30;;;;;;;15.00;7.50;;;15.50;99.90;;;;;;1933929;73;21058;-76
2022/03/17 11:24:23;;;;;;;11.22;7.15;;;15.50;99.90;;;;;;1924399;74;21129;-75
2022/03/17 11:27:17;;;;;;;14.13;7.05;;;15.50;99.90;;;;;;1946611;73;21678;-75
2022/03/17 11:30:14;;;;;;;14.43;8.00;;;15.60;99.90;;;;;;1932175;73;21127;-75
2022/03/17 11:33:09;;;;;;;9.73;6.28;;;15.70;99.90;;;;;;1917540;75;21051;-76
2022/03/17 11:36:03;;;;;;;13.65;6.28;;;15.90;99.90;;;;;;1934248;73;21600;-75
2022/03/17 11:38:56;;;;;;;10.93;5.72;;;15.90;99.90;;;;;;1917793;75;21059;-90
2022/03/17 11:41:52;;;;;;;10.05;6.05;;;15.80;99.90;;;;;;1928969;73;21135;-90
2022/03/17 11:44:42;;;;;;;9.45;6.03;;;15.90;99.90;;;;;;1935701;73;21096;-91
2022/03/17 11:47:37;;;;;;;11.08;6.80;;;15.90;99.90;;;;;;1893837;75;21058;-90
2022/03/17 11:50:32;;;;;;;11.53;7.10;;;15.90;99.90;;;;;;1931690;73;21205;-91
2022/03/17 11:53:39;;;;;;;14.58;7.53;;;15.80;99.90;;;;;;1941042;73;21167;-91
2022/03/17 11:56:37;;;;;;;12.40;7.55;;;15.70;99.90;;;;;;1918002;75;21062;-91
2022/03/17 12:02:16;;;;;;;14.18;6.80;;;15.90;99.90;;;;;;1958626;72;22139;-93
2022/03/17 12:08:06;;;;;;;11.15;6.97;;;15.90;99.90;;;;;;1963298;72;22245;-74
2022/03/17 12:11:21;;;;;;;15.13;7.17;;;16.10;99.90;;;;;;1929152;73;21131;-76
2022/03/17 12:14:22;;;;;;;13.00;7.20;;;16.20;99.90;;;;;;1933503;74;21063;-75
2022/03/17 12:17:19;;;;;;;11.85;6.55;;;16.20;99.90;;;;;;1917501;75;21549;-74
2022/03/17 12:20:14;;;;;;;15.13;7.45;;;16.50;99.90;;;;;;1918844;73;21103;-75
2022/03/17 12:23:07;;;;;;;12.37;8.00;;;16.30;99.90;;;;;;1917235;75;21048;-74
2022/03/17 12:26:07;;;;;;;9.20;7.10;;;16.40;99.90;;;;;;1926821;73;21147;-74
2022/03/17 12:31:43;;;;;;;12.80;7.15;;;16.40;99.90;;;;;;1956390;72;22603;-89
2022/03/17 12:52:18;;;;;;;14.35;7.95;;;16.60;99.90;;;;;;2000680;71;22071;-92
2022/03/17 12:55:29;;;;;;;12.00;7.72;;;16.60;99.90;;;;;;1976001;72;21074;-93
2022/03/17 12:58:20;;;;;;;12.63;7.75;;;16.70;99.90;;;;;;2058957;69;21100;-91
2022/03/17 13:01:15;;;;;;;12.25;7.50;;;16.90;99.90;;;;;;2012529;71;21517;-91
2022/03/17 13:04:08;;;;;;;14.85;7.90;;;16.70;99.90;;;;;;2032880;70;21092;-91
2022/03/17 13:07:00;;;;;;;13.53;7.70;;;16.80;99.90;;;;;;2032537;70;21038;-90
2022/03/17 13:33:12;;;;;;;13.75;7.60;;;16.60;99.90;;;;;;1958573;72;22148;-93
2022/03/17 13:36:23;;;;;;;10.68;6.95;;;16.50;99.90;;;;;;1904968;75;21156;-75
2022/03/17 13:39:13;;;;;;;13.13;6.75;;;16.50;99.90;;;;;;1913589;75;21063;-74
2022/03/17 13:44:53;;;;;;;11.20;6.65;;;16.40;99.90;;;;;;1936948;72;22141;-76
2022/03/17 13:48:06;;;;;;;12.78;6.65;;;16.50;99.90;;;;;;1894443;75;21099;-76
2022/03/17 13:53:42;;;;;;;11.22;5.97;;;16.30;99.90;;;;;;1973439;72;22110;-94
2022/03/17 13:57:15;;;;;;;8.75;5.85;;;16.30;99.90;;;;;;1920338;73;21101;-93
2022/03/17 14:00:19;;;;;;;9.70;6.17;;;16.30;99.90;;;;;;1929703;73;21090;-91
2022/03/17 14:03:39;;;;;;;8.00;5.85;;;16.50;99.90;;;;;;1943637;73;21125;-93
2022/03/17 14:06:35;;;;;;;10.82;5.95;;;16.40;99.90;;;;;;1931430;73;21040;-75
2022/03/17 14:09:27;;;;;;;10.05;5.60;;;16.40;99.90;;;;;;1915383;75;21139;-75
2022/03/17 14:12:19;;;;;;;12.40;6.42;;;16.40;99.90;;;;;;1950953;73;21090;-95
2022/03/17 14:29:37;;;;;;;12.23;7.05;;;16.20;99.90;;;;;;1881017;74;22294;-75
2022/03/17 14:32:49;;;;;;;15.35;6.80;;;15.70;99.90;;;;;;1847999;77;21165;-75
2022/03/17 14:35:52;;;;;;;11.63;6.67;;;15.70;99.90;;;;;;1837014;76;21170;-75
2022/03/17 14:38:49;;;;;;;14.43;7.62;;;15.60;99.90;;;;;;1875691;75;21230;-74
2022/03/17 14:41:42;;;;;;;15.20;7.62;;;15.50;99.90;;;;;;1864695;75;21127;-90
2022/03/17 14:44:37;;;;;;;17.05;7.22;;;15.50;99.90;;;;;;1870478;74;21118;-93
2022/03/17 14:47:41;;;;;;;18.40;7.60;;;15.40;99.90;;;;;;1858623;77;21188;-75
2022/03/17 14:50:33;;;;;;;14.25;7.83;;;15.40;99.90;;;;;;1853498;76;21156;-75
2022/03/17 14:53:25;;;;;;;13.80;7.35;;;15.30;99.90;;;;;;1894673;75;21051;-75
2022/03/17 14:56:20;;;;;;;14.20;8.35;;;15.30;99.90;;;;;;1891883;75;21215;-75
2022/03/17 14:59:29;;;;;;;13.28;8.18;;;15.20;99.90;;;;;;1884610;75;21045;-75
2022/03/17 15:02:25;;;;;;;14.13;7.95;;;15.10;99.90;;;;;;1866948;75;21086;-74
2022/03/17 15:05:17;;;;;;;12.70;7.40;;;15.10;99.90;;;;;;1863496;75;21082;-75
2022/03/17 15:08:09;;;;;;;15.43;8.30;;;15.00;99.90;;;;;;1861594;76;21086;-75
2022/03/17 15:11:01;;;;;;;10.75;6.85;;;15.00;99.90;;;;;;1871163;75;21164;-75
2022/03/17 15:13:53;;;;;;;15.85;7.87;;;15.00;99.90;;;;;;1880555;75;21038;-74
2022/03/17 15:16:45;;;;;;;18.73;7.58;;;15.10;99.90;;;;;;1878890;75;21082;-75
2022/03/17 15:19:41;;;;;;;13.28;7.05;;;15.10;99.90;;;;;;1857412;75;21114;-94
2022/03/17 15:22:38;;;;;;;12.53;7.62;;;15.10;99.90;;;;;;1858459;77;21134;-93
2022/03/17 15:25:31;;;;;;;17.95;8.18;;;15.10;99.90;;;;;;1860499;75;21094;-92
2022/03/17 15:31:32;;;;;;;20.68;8.73;;;15.00;99.90;;;;;;1885290;76;21672;-91
2022/03/17 15:34:26;;;;;;;14.90;8.50;;;15.00;99.90;;;;;;1839640;77;21180;-92
2022/03/17 15:37:17;;;;;;;15.00;8.60;;;15.00;99.90;;;;;;1894546;75;21155;-93
2022/03/17 15:40:10;;;;;;;18.25;8.83;;;15.00;99.90;;;;;;1869378;75;21588;-92
2022/03/17 15:43:05;;;;;;;15.80;8.83;;;14.90;99.90;;;;;;1860269;77;21031;-93
2022/03/17 15:45:56;;;;;;;14.03;8.45;;;14.90;99.90;;;;;;1869925;76;21168;-89
2022/03/17 15:48:48;;;;;;;18.07;10.20;;;14.80;99.90;;;;;;1894738;75;21050;-89
2022/03/17 15:51:40;;;;;;;19.10;10.90;;;14.90;99.90;;;;;;1914277;75;21093;-94
2022/03/17 15:54:32;;;;;;;23.80;12.23;;;14.50;99.90;;;;;;1909958;75;21051;-94
2022/03/17 15:57:24;;;;;;;21.90;13.40;;;14.30;99.90;;;;;;1914570;75;21039;-89
2022/03/17 16:00:17;;;;;;;23.27;12.90;;;14.00;99.90;;;;;;1901359;75;21084;-92
2022/03/17 16:03:12;;;;;;;23.45;14.28;;;13.90;99.90;;;;;;1869593;75;21135;-94
2022/03/17 16:06:05;;;;;;;22.77;13.68;;;13.80;99.90;;;;;;1879694;75;21139;-91
2022/03/17 16:08:57;;;;;;;28.02;14.03;;;13.70;99.90;;;;;;1886522;75;21160;-95
2022/03/17 16:14:58;;;;;;;21.25;13.72;;;13.40;99.90;;;;;;1858123;76;21148;-92
2022/03/17 16:17:50;;;;;;;27.48;14.45;;;13.40;99.90;;;;;;1883996;75;21159;-93
2022/03/17 16:20:44;;;;;;;25.35;15.35;;;13.30;99.90;;;;;;1884458;75;21056;-92
2022/03/17 16:23:37;;;;;;;24.43;14.55;;;13.30;99.90;;;;;;1913833;75;21079;-92
2022/03/17 16:26:32;;;;;;;23.42;15.58;;;13.20;99.90;;;;;;1883225;75;21101;-91
2022/03/17 16:29:23;;;;;;;22.65;14.75;;;13.30;99.90;;;;;;1869818;76;21053;-92
2022/03/17 16:32:14;;;;;;;24.98;15.58;;;13.10;99.90;;;;;;1881609;75;21139;-92
2022/03/17 16:35:08;;;;;;;27.15;15.10;;;13.10;99.90;;;;;;1895553;76;21124;-91
2022/03/17 16:38:03;;;;;;;24.10;15.23;;;12.80;99.90;;;;;;1888201;75;21075;-90
2022/03/17 16:40:53;;;;;;;27.17;16.35;;;12.90;99.90;;;;;;1880319;76;21062;-92
2022/03/17 16:43:45;;;;;;;21.07;14.98;;;12.90;99.90;;;;;;1889652;75;21117;-93
2022/03/17 16:46:37;;;;;;;28.32;15.85;;;12.90;99.90;;;;;;1860252;76;21193;-94
2022/03/17 16:49:29;;;;;;;26.42;16.35;;;12.90;99.90;;;;;;1868805;76;21151;-89
2022/03/17 16:52:21;;;;;;;25.95;16.02;;;13.00;99.90;;;;;;1852715;77;21144;-93
2022/03/17 16:55:12;;;;;;;21.93;14.53;;;12.80;99.90;;;;;;1842930;77;21081;-92
2022/03/17 16:58:04;;;;;;;26.93;14.30;;;12.90;99.90;;;;;;1870971;76;21134;-92
2022/03/17 17:00:55;;;;;;;23.12;15.40;;;12.70;99.90;;;;;;1870260;76;21166;-92
2022/03/17 17:03:48;;;;;;;25.97;15.30;;;12.70;99.90;;;;;;1903471;74;21054;-93
2022/03/17 17:06:40;;;;;;;22.77;14.43;;;12.80;99.90;;;;;;1864516;76;21102;-93
2022/03/17 17:09:32;;;;;;;24.15;14.98;;;12.80;99.90;;;;;;1856343;76;21498;-91
2022/03/17 17:12:23;;;;;;;28.55;15.88;;;12.70;99.90;;;;;;1859246;76;21095;-92
2022/03/17 17:15:15;;;;;;;23.15;15.55;;;12.70;99.90;;;;;;1857871;76;21264;-74
2022/03/17 17:18:06;;;;;;;21.27;12.82;;;12.70;99.90;;;;;;1859295;76;21195;-74
2022/03/17 17:20:58;;;;;;;23.90;15.05;;;12.70;99.90;;;;;;1859461;76;21086;-74
2022/03/17 17:33:20;;;;;;;20.45;14.05;;;12.60;99.90;;;;;;1874035;75;21134;-75
2022/03/17 17:36:11;;;;;;;24.98;13.85;;;12.50;99.90;;;;;;1876430;75;21090;-75
2022/03/17 17:39:03;;;;;;;25.43;15.00;;;12.50;99.90;;;;;;1853480;76;21091;-75
2022/03/17 17:41:56;;;;;;;20.60;13.10;;;12.50;99.90;;;;;;1839737;76;21107;-76
2022/03/17 17:44:48;;;;;;;21.57;13.60;;;12.50;99.90;;;;;;1855008;76;21177;-75
2022/03/17 17:50:22;;;;;;;24.10;14.83;;;12.40;99.90;;;;;;1956040;72;22142;-76
2022/03/17 17:53:31;;;;;;;22.20;13.98;;;12.40;99.90;;;;;;1896196;75;21492;-75
2022/03/17 17:56:24;;;;;;;21.33;14.10;;;12.40;99.90;;;;;;1889388;75;21122;-76
2022/03/17 17:59:16;;;;;;;20.50;13.95;;;12.40;99.90;;;;;;1876562;75;21058;-74
2022/03/17 18:02:08;;;;;;;19.10;12.60;;;12.40;99.90;;;;;;1902458;75;21055;-74
2022/03/17 18:04:59;;;;;;;20.43;14.53;;;12.40;99.90;;;;;;1897692;75;21167;-74
2022/03/17 18:07:51;;;;;;;27.07;16.02;;;12.30;99.90;;;;;;1895646;75;21063;-75
2022/03/17 18:10:43;;;;;;;19.73;12.33;;;12.40;99.90;;;;;;1895678;75;21063;-74
2022/03/17 18:13:34;;;;;;;17.77;11.80;;;12.50;99.90;;;;;;1897929;75;21062;-74
2022/03/17 18:16:26;;;;;;;21.87;13.93;;;12.40;99.90;;;;;;1884471;75;21146;-74
2022/03/17 18:19:18;;;;;;;18.98;13.85;;;12.40;99.90;;;;;;1884632;75;21170;-74
2022/03/17 18:22:10;;;;;;;22.65;13.83;;;12.40;99.90;;;;;;1884525;76;21091;-74
2022/03/17 18:25:03;;;;;;;21.48;14.05;;;12.30;99.90;;;;;;1906055;75;21048;-74
2022/03/17 18:27:55;;;;;;;24.55;14.43;;;12.20;99.90;;;;;;1901051;75;21095;-74
2022/03/17 18:30:46;;;;;;;21.37;14.47;;;12.20;99.90;;;;;;1906082;75;21047;-75
2022/03/17 18:33:38;;;;;;;18.65;13.03;;;12.30;99.90;;;;;;1906762;75;21125;-75
2022/03/17 18:36:29;;;;;;;20.90;12.63;;;12.30;99.90;;;;;;1906892;75;21431;-75
2022/03/17 18:39:21;;;;;;;18.02;12.47;;;12.30;99.90;;;;;;1902908;75;21196;-75
2022/03/17 18:42:13;;;;;;;21.52;13.40;;;12.30;99.90;;;;;;1897382;75;21525;-75
2022/03/17 18:45:06;;;;;;;22.62;13.85;;;12.40;99.90;;;;;;1887862;75;21051;-74
2022/03/17 18:47:58;;;;;;;23.55;14.13;;;12.30;99.90;;;;;;1906638;75;21076;-74
2022/03/17 18:50:49;;;;;;;18.45;13.03;;;12.30;99.90;;;;;;1904549;75;21116;-75
2022/03/17 18:53:40;;;;;;;22.42;13.83;;;12.40;99.90;;;;;;1899314;75;21081;-75
2022/03/17 18:56:32;;;;;;;19.12;13.25;;;12.30;99.90;;;;;;1895268;75;21141;-74
2022/03/17 18:59:25;;;;;;;21.60;13.70;;;12.30;99.90;;;;;;1895630;75;21133;-74
2022/03/17 19:02:19;;;;;;;22.77;13.55;;;12.20;99.90;;;;;;1895122;75;21125;-74
2022/03/17 19:05:13;;;;;;;19.52;13.08;;;12.20;99.90;;;;;;1899905;75;21063;-74
2022/03/17 19:08:05;;;;;;;21.62;14.38;;;12.20;99.90;;;;;;1896554;75;21113;-75
2022/03/17 19:10:56;;;;;;;18.92;13.85;;;12.20;99.90;;;;;;1895170;75;21556;-74
2022/03/17 19:13:48;;;;;;;21.90;14.68;;;12.20;99.90;;;;;;1894739;75;21124;-74
2022/03/17 19:16:40;;;;;;;21.77;13.28;;;12.10;99.90;;;;;;1898634;75;21056;-74